sensor_id;sensor_type;location;lat;lon;timestamp;P1;durP1;ratioP1;P2;durP2;ratioP2
18793;SDS011;29610;49.022;12.114;2023-02-25T00:02:06;5.10;;;1.67;;
18793;SDS011;29610;49.022;12.114;2023-02-25T00:04:35;5.53;;;1.90;;
18793;SDS011;29610;49.022;12.114;2023-02-25T00:07:03;4.80;;;1.40;;
18793;SDS011;29610;49.022;12.114;2023-02-25T00:09:32;5.20;;;1.70;;
18793;SDS011;29610;49.022;12.114;2023-02-25T00:12:02;7.10;;;1.97;;
18793;SDS011;29610;49.022;12.114;2023-02-25T00:14:30;5.50;;;1.90;;
18793;SDS011;29610;49.022;12.114;2023-02-25T00:16:59;5.83;;;1.67;;
18793;SDS011;29610;49.022;12.114;2023-02-25T00:19:29;5.97;;;2.20;;
18793;SDS011;29610;49.022;12.114;2023-02-25T00:21:58;5.50;;;1.80;;
18793;SDS011;29610;49.022;12.114;2023-02-25T00:24:27;5.17;;;1.77;;
18793;SDS011;29610;49.022;12.114;2023-02-25T00:26:56;6.77;;;2.50;;
18793;SDS011;29610;49.022;12.114;2023-02-25T00:29:25;5.07;;;1.87;;
18793;SDS011;29610;49.022;12.114;2023-02-25T00:31:53;5.17;;;1.90;;
18793;SDS011;29610;49.022;12.114;2023-02-25T00:34:22;5.70;;;2.10;;
18793;SDS011;29610;49.022;12.114;2023-02-25T00:36:53;5.37;;;1.83;;
18793;SDS011;29610;49.022;12.114;2023-02-25T00:39:21;11.00;;;2.23;;
18793;SDS011;29610;49.022;12.114;2023-02-25T00:42:07;5.73;;;2.20;;
18793;SDS011;29610;49.022;12.114;2023-02-25T00:44:36;7.20;;;2.47;;
18793;SDS011;29610;49.022;12.114;2023-02-25T00:47:05;6.80;;;2.57;;
18793;SDS011;29610;49.022;12.114;2023-02-25T00:49:36;7.03;;;2.43;;
18793;SDS011;29610;49.022;12.114;2023-02-25T00:52:06;5.80;;;2.20;;
18793;SDS011;29610;49.022;12.114;2023-02-25T00:54:35;6.73;;;2.97;;
18793;SDS011;29610;49.022;12.114;2023-02-25T00:57:05;6.27;;;2.57;;
18793;SDS011;29610;49.022;12.114;2023-02-25T00:59:34;8.70;;;3.60;;
18793;SDS011;29610;49.022;12.114;2023-02-25T01:02:03;7.90;;;3.50;;
18793;SDS011;29610;49.022;12.114;2023-02-25T01:04:32;8.40;;;3.07;;
18793;SDS011;29610;49.022;12.114;2023-02-25T01:07:01;8.50;;;3.30;;
18793;SDS011;29610;49.022;12.114;2023-02-25T01:09:32;8.90;;;3.80;;
18793;SDS011;29610;49.022;12.114;2023-02-25T01:12:01;11.63;;;3.80;;
18793;SDS011;29610;49.022;12.114;2023-02-25T01:14:30;8.57;;;3.77;;
18793;SDS011;29610;49.022;12.114;2023-02-25T01:16:59;9.00;;;4.10;;
18793;SDS011;29610;49.022;12.114;2023-02-25T01:19:30;8.80;;;4.30;;
18793;SDS011;29610;49.022;12.114;2023-02-25T01:21:59;8.87;;;4.00;;
18793;SDS011;29610;49.022;12.114;2023-02-25T01:24:30;7.60;;;4.03;;
18793;SDS011;29610;49.022;12.114;2023-02-25T01:27:02;10.87;;;4.43;;
18793;SDS011;29610;49.022;12.114;2023-02-25T01:29:32;9.10;;;4.07;;
18793;SDS011;29610;49.022;12.114;2023-02-25T01:32:10;9.20;;;4.40;;
18793;SDS011;29610;49.022;12.114;2023-02-25T01:34:40;9.70;;;4.50;;
18793;SDS011;29610;49.022;12.114;2023-02-25T01:37:09;10.13;;;4.73;;
18793;SDS011;29610;49.022;12.114;2023-02-25T01:39:39;8.20;;;3.90;;
18793;SDS011;29610;49.022;12.114;2023-02-25T01:42:10;13.10;;;5.43;;
18793;SDS011;29610;49.022;12.114;2023-02-25T01:48:08;15.27;;;5.47;;
18793;SDS011;29610;49.022;12.114;2023-02-25T01:50:45;10.30;;;4.73;;
18793;SDS011;29610;49.022;12.114;2023-02-25T01:53:19;11.60;;;5.07;;
18793;SDS011;29610;49.022;12.114;2023-02-25T01:55:56;14.13;;;5.97;;
18793;SDS011;29610;49.022;12.114;2023-02-25T01:58:28;11.23;;;5.13;;
18793;SDS011;29610;49.022;12.114;2023-02-25T02:00:59;12.03;;;5.83;;
18793;SDS011;29610;49.022;12.114;2023-02-25T02:03:29;14.00;;;5.27;;
18793;SDS011;29610;49.022;12.114;2023-02-25T02:06:03;10.30;;;4.90;;
18793;SDS011;29610;49.022;12.114;2023-02-25T02:08:39;9.50;;;4.10;;
18793;SDS011;29610;49.022;12.114;2023-02-25T02:11:12;10.30;;;4.83;;
18793;SDS011;29610;49.022;12.114;2023-02-25T02:13:42;12.87;;;4.80;;
18793;SDS011;29610;49.022;12.114;2023-02-25T02:16:35;12.10;;;4.90;;
18793;SDS011;29610;49.022;12.114;2023-02-25T02:19:30;10.53;;;5.00;;
18793;SDS011;29610;49.022;12.114;2023-02-25T02:22:17;11.17;;;5.37;;
18793;SDS011;29610;49.022;12.114;2023-02-25T02:28:29;12.83;;;4.70;;
18793;SDS011;29610;49.022;12.114;2023-02-25T02:31:44;10.27;;;4.53;;
18793;SDS011;29610;49.022;12.114;2023-02-25T02:34:34;11.00;;;4.10;;
18793;SDS011;29610;49.022;12.114;2023-02-25T02:37:15;9.77;;;4.63;;
18793;SDS011;29610;49.022;12.114;2023-02-25T02:40:02;10.70;;;5.03;;
18793;SDS011;29610;49.022;12.114;2023-02-25T02:42:52;10.40;;;5.30;;
18793;SDS011;29610;49.022;12.114;2023-02-25T02:45:37;11.40;;;4.00;;
18793;SDS011;29610;49.022;12.114;2023-02-25T02:48:14;10.47;;;4.97;;
18793;SDS011;29610;49.022;12.114;2023-02-25T02:50:50;16.73;;;4.73;;
18793;SDS011;29610;49.022;12.114;2023-02-25T02:53:25;13.30;;;4.53;;
18793;SDS011;29610;49.022;12.114;2023-02-25T02:56:02;11.30;;;4.30;;
18793;SDS011;29610;49.022;12.114;2023-02-25T02:58:35;10.97;;;4.63;;
18793;SDS011;29610;49.022;12.114;2023-02-25T03:01:10;15.27;;;5.37;;
18793;SDS011;29610;49.022;12.114;2023-02-25T03:03:46;11.20;;;5.07;;
18793;SDS011;29610;49.022;12.114;2023-02-25T03:06:26;9.87;;;4.50;;
18793;SDS011;29610;49.022;12.114;2023-02-25T03:09:02;10.40;;;4.90;;
18793;SDS011;29610;49.022;12.114;2023-02-25T03:11:37;15.90;;;5.00;;
18793;SDS011;29610;49.022;12.114;2023-02-25T03:14:06;11.87;;;4.87;;
18793;SDS011;29610;49.022;12.114;2023-02-25T03:16:35;11.67;;;5.17;;
18793;SDS011;29610;49.022;12.114;2023-02-25T03:19:11;11.37;;;4.60;;
18793;SDS011;29610;49.022;12.114;2023-02-25T03:21:45;16.63;;;5.13;;
18793;SDS011;29610;49.022;12.114;2023-02-25T03:24:21;10.23;;;5.10;;
18793;SDS011;29610;49.022;12.114;2023-02-25T03:26:59;12.00;;;4.07;;
18793;SDS011;29610;49.022;12.114;2023-02-25T03:29:49;10.07;;;4.07;;
18793;SDS011;29610;49.022;12.114;2023-02-25T03:32:18;11.67;;;4.50;;
18793;SDS011;29610;49.022;12.114;2023-02-25T03:34:50;9.63;;;4.60;;
18793;SDS011;29610;49.022;12.114;2023-02-25T03:37:24;10.30;;;3.67;;
18793;SDS011;29610;49.022;12.114;2023-02-25T03:40:03;14.63;;;4.27;;
18793;SDS011;29610;49.022;12.114;2023-02-25T03:42:40;10.37;;;3.23;;
18793;SDS011;29610;49.022;12.114;2023-02-25T03:45:15;11.10;;;3.60;;
18793;SDS011;29610;49.022;12.114;2023-02-25T03:47:45;12.13;;;3.70;;
18793;SDS011;29610;49.022;12.114;2023-02-25T03:50:17;9.33;;;3.47;;
18793;SDS011;29610;49.022;12.114;2023-02-25T03:52:54;7.33;;;2.77;;
18793;SDS011;29610;49.022;12.114;2023-02-25T03:55:43;7.93;;;3.03;;
18793;SDS011;29610;49.022;12.114;2023-02-25T03:58:12;7.40;;;2.50;;
18793;SDS011;29610;49.022;12.114;2023-02-25T04:00:41;8.77;;;2.60;;
18793;SDS011;29610;49.022;12.114;2023-02-25T04:03:15;9.10;;;3.40;;
18793;SDS011;29610;49.022;12.114;2023-02-25T04:05:45;13.80;;;2.50;;
18793;SDS011;29610;49.022;12.114;2023-02-25T04:08:14;12.47;;;3.97;;
18793;SDS011;29610;49.022;12.114;2023-02-25T04:10:44;7.80;;;2.80;;
18793;SDS011;29610;49.022;12.114;2023-02-25T04:13:15;7.80;;;3.20;;
18793;SDS011;29610;49.022;12.114;2023-02-25T04:15:47;6.80;;;2.60;;
18793;SDS011;29610;49.022;12.114;2023-02-25T04:18:18;8.40;;;3.27;;
18793;SDS011;29610;49.022;12.114;2023-02-25T04:20:48;9.83;;;3.43;;
18793;SDS011;29610;49.022;12.114;2023-02-25T04:23:16;8.13;;;3.20;;
18793;SDS011;29610;49.022;12.114;2023-02-25T04:25:45;11.50;;;2.90;;
18793;SDS011;29610;49.022;12.114;2023-02-25T04:28:13;8.83;;;3.40;;
18793;SDS011;29610;49.022;12.114;2023-02-25T04:30:42;12.20;;;2.40;;
18793;SDS011;29610;49.022;12.114;2023-02-25T04:33:11;10.57;;;2.73;;
18793;SDS011;29610;49.022;12.114;2023-02-25T04:35:40;6.93;;;3.10;;
18793;SDS011;29610;49.022;12.114;2023-02-25T04:38:11;6.63;;;2.83;;
18793;SDS011;29610;49.022;12.114;2023-02-25T04:40:40;6.40;;;2.60;;
18793;SDS011;29610;49.022;12.114;2023-02-25T04:43:08;7.60;;;2.60;;
18793;SDS011;29610;49.022;12.114;2023-02-25T04:45:37;7.03;;;2.77;;
18793;SDS011;29610;49.022;12.114;2023-02-25T04:48:06;8.40;;;3.47;;
18793;SDS011;29610;49.022;12.114;2023-02-25T04:50:34;13.40;;;3.17;;
18793;SDS011;29610;49.022;12.114;2023-02-25T04:53:03;8.73;;;3.20;;
18793;SDS011;29610;49.022;12.114;2023-02-25T04:55:34;14.30;;;2.50;;
18793;SDS011;29610;49.022;12.114;2023-02-25T04:58:03;10.03;;;2.83;;
18793;SDS011;29610;49.022;12.114;2023-02-25T05:00:32;6.40;;;2.60;;
18793;SDS011;29610;49.022;12.114;2023-02-25T05:03:01;7.90;;;2.87;;
18793;SDS011;29610;49.022;12.114;2023-02-25T05:05:30;14.47;;;5.90;;
18793;SDS011;29610;49.022;12.114;2023-02-25T05:07:58;10.87;;;3.80;;
18793;SDS011;29610;49.022;12.114;2023-02-25T05:10:27;15.43;;;3.53;;
18793;SDS011;29610;49.022;12.114;2023-02-25T05:12:57;8.10;;;2.97;;
18793;SDS011;29610;49.022;12.114;2023-02-25T05:15:25;12.77;;;4.07;;
18793;SDS011;29610;49.022;12.114;2023-02-25T05:17:54;8.13;;;3.40;;
18793;SDS011;29610;49.022;12.114;2023-02-25T05:20:23;10.57;;;2.97;;
18793;SDS011;29610;49.022;12.114;2023-02-25T05:22:51;8.37;;;3.10;;
18793;SDS011;29610;49.022;12.114;2023-02-25T05:25:20;15.30;;;3.87;;
18793;SDS011;29610;49.022;12.114;2023-02-25T05:27:49;10.27;;;3.23;;
18793;SDS011;29610;49.022;12.114;2023-02-25T05:30:19;7.30;;;2.87;;
18793;SDS011;29610;49.022;12.114;2023-02-25T05:32:48;7.27;;;2.70;;
18793;SDS011;29610;49.022;12.114;2023-02-25T05:35:17;14.10;;;3.70;;
18793;SDS011;29610;49.022;12.114;2023-02-25T05:37:45;10.53;;;3.37;;
18793;SDS011;29610;49.022;12.114;2023-02-25T05:40:17;12.60;;;3.70;;
18793;SDS011;29610;49.022;12.114;2023-02-25T05:42:46;11.33;;;3.30;;
18793;SDS011;29610;49.022;12.114;2023-02-25T05:45:15;7.70;;;3.47;;
18793;SDS011;29610;49.022;12.114;2023-02-25T05:47:45;13.80;;;3.40;;
18793;SDS011;29610;49.022;12.114;2023-02-25T05:53:00;14.47;;;3.50;;
18793;SDS011;29610;49.022;12.114;2023-02-25T05:55:29;9.57;;;3.73;;
18793;SDS011;29610;49.022;12.114;2023-02-25T05:57:57;8.33;;;3.50;;
18793;SDS011;29610;49.022;12.114;2023-02-25T06:00:26;13.67;;;3.60;;
18793;SDS011;29610;49.022;12.114;2023-02-25T06:02:57;11.07;;;3.50;;
18793;SDS011;29610;49.022;12.114;2023-02-25T06:05:26;8.90;;;3.23;;
18793;SDS011;29610;49.022;12.114;2023-02-25T06:07:55;8.37;;;3.50;;
18793;SDS011;29610;49.022;12.114;2023-02-25T06:10:25;6.80;;;2.67;;
18793;SDS011;29610;49.022;12.114;2023-02-25T06:12:54;8.20;;;3.27;;
18793;SDS011;29610;49.022;12.114;2023-02-25T06:15:23;8.77;;;2.63;;
18793;SDS011;29610;49.022;12.114;2023-02-25T06:17:51;13.83;;;3.30;;
18793;SDS011;29610;49.022;12.114;2023-02-25T06:20:22;13.27;;;3.07;;
18793;SDS011;29610;49.022;12.114;2023-02-25T06:22:53;10.17;;;2.80;;
18793;SDS011;29610;49.022;12.114;2023-02-25T06:25:22;12.73;;;3.47;;
18793;SDS011;29610;49.022;12.114;2023-02-25T06:27:55;7.40;;;3.03;;
18793;SDS011;29610;49.022;12.114;2023-02-25T06:30:24;6.87;;;2.67;;
18793;SDS011;29610;49.022;12.114;2023-02-25T06:32:55;11.70;;;2.47;;
18793;SDS011;29610;49.022;12.114;2023-02-25T06:35:25;8.37;;;2.60;;
18793;SDS011;29610;49.022;12.114;2023-02-25T06:37:54;6.70;;;2.60;;
18793;SDS011;29610;49.022;12.114;2023-02-25T06:40:24;10.90;;;2.80;;
18793;SDS011;29610;49.022;12.114;2023-02-25T06:42:55;8.30;;;2.97;;
18793;SDS011;29610;49.022;12.114;2023-02-25T06:45:24;9.10;;;2.47;;
18793;SDS011;29610;49.022;12.114;2023-02-25T06:47:53;9.47;;;3.07;;
18793;SDS011;29610;49.022;12.114;2023-02-25T06:50:22;7.10;;;2.73;;
18793;SDS011;29610;49.022;12.114;2023-02-25T06:52:53;8.20;;;2.20;;
18793;SDS011;29610;49.022;12.114;2023-02-25T06:55:21;6.90;;;2.33;;
18793;SDS011;29610;49.022;12.114;2023-02-25T06:57:51;8.10;;;2.60;;
18793;SDS011;29610;49.022;12.114;2023-02-25T07:00:21;7.50;;;2.30;;
18793;SDS011;29610;49.022;12.114;2023-02-25T07:02:50;5.97;;;2.03;;
18793;SDS011;29610;49.022;12.114;2023-02-25T07:05:19;9.10;;;2.70;;
18793;SDS011;29610;49.022;12.114;2023-02-25T07:07:48;6.60;;;2.30;;
18793;SDS011;29610;49.022;12.114;2023-02-25T07:10:19;7.20;;;2.53;;
18793;SDS011;29610;49.022;12.114;2023-02-25T07:12:50;7.10;;;2.20;;
18793;SDS011;29610;49.022;12.114;2023-02-25T07:15:20;5.67;;;2.20;;
18793;SDS011;29610;49.022;12.114;2023-02-25T07:17:49;6.60;;;2.40;;
18793;SDS011;29610;49.022;12.114;2023-02-25T07:20:19;8.30;;;2.63;;
18793;SDS011;29610;49.022;12.114;2023-02-25T07:22:48;9.93;;;3.00;;
18793;SDS011;29610;49.022;12.114;2023-02-25T07:25:19;9.80;;;3.63;;
18793;SDS011;29610;49.022;12.114;2023-02-25T07:27:48;13.40;;;3.20;;
18793;SDS011;29610;49.022;12.114;2023-02-25T07:30:17;9.77;;;2.50;;
18793;SDS011;29610;49.022;12.114;2023-02-25T07:32:46;17.13;;;2.73;;
18793;SDS011;29610;49.022;12.114;2023-02-25T07:35:15;10.53;;;2.57;;
18793;SDS011;29610;49.022;12.114;2023-02-25T07:37:43;6.40;;;2.50;;
18793;SDS011;29610;49.022;12.114;2023-02-25T07:40:13;10.70;;;2.50;;
18793;SDS011;29610;49.022;12.114;2023-02-25T07:42:44;12.63;;;3.27;;
18793;SDS011;29610;49.022;12.114;2023-02-25T07:45:13;8.70;;;2.60;;
18793;SDS011;29610;49.022;12.114;2023-02-25T07:50:36;7.60;;;2.20;;
18793;SDS011;29610;49.022;12.114;2023-02-25T07:53:05;10.07;;;3.00;;
18793;SDS011;29610;49.022;12.114;2023-02-25T07:55:34;11.77;;;2.40;;
18793;SDS011;29610;49.022;12.114;2023-02-25T07:58:04;6.13;;;2.00;;
18793;SDS011;29610;49.022;12.114;2023-02-25T08:00:33;8.50;;;1.90;;
18793;SDS011;29610;49.022;12.114;2023-02-25T08:03:04;8.63;;;2.33;;
18793;SDS011;29610;49.022;12.114;2023-02-25T08:05:33;7.07;;;2.00;;
18793;SDS011;29610;49.022;12.114;2023-02-25T08:08:03;6.93;;;2.03;;
18793;SDS011;29610;49.022;12.114;2023-02-25T08:10:33;10.77;;;2.10;;
18793;SDS011;29610;49.022;12.114;2023-02-25T08:13:04;11.80;;;2.17;;
18793;SDS011;29610;49.022;12.114;2023-02-25T08:15:41;6.03;;;2.23;;
18793;SDS011;29610;49.022;12.114;2023-02-25T08:18:12;9.83;;;2.50;;
18793;SDS011;29610;49.022;12.114;2023-02-25T08:20:44;6.17;;;1.70;;
18793;SDS011;29610;49.022;12.114;2023-02-25T08:23:13;16.17;;;2.87;;
18793;SDS011;29610;49.022;12.114;2023-02-25T08:25:42;7.83;;;1.90;;
18793;SDS011;29610;49.022;12.114;2023-02-25T08:28:12;12.17;;;1.77;;
18793;SDS011;29610;49.022;12.114;2023-02-25T08:30:44;12.90;;;2.00;;
18793;SDS011;29610;49.022;12.114;2023-02-25T08:33:13;6.00;;;2.27;;
18793;SDS011;29610;49.022;12.114;2023-02-25T08:35:43;9.53;;;2.10;;
18793;SDS011;29610;49.022;12.114;2023-02-25T08:38:12;8.53;;;3.30;;
18793;SDS011;29610;49.022;12.114;2023-02-25T08:40:41;10.63;;;3.60;;
18793;SDS011;29610;49.022;12.114;2023-02-25T08:43:10;6.60;;;2.80;;
18793;SDS011;29610;49.022;12.114;2023-02-25T08:45:40;9.60;;;3.10;;
18793;SDS011;29610;49.022;12.114;2023-02-25T08:48:09;6.20;;;2.33;;
18793;SDS011;29610;49.022;12.114;2023-02-25T08:50:39;12.43;;;2.50;;
18793;SDS011;29610;49.022;12.114;2023-02-25T08:53:07;6.10;;;2.00;;
18793;SDS011;29610;49.022;12.114;2023-02-25T08:55:37;8.27;;;2.53;;
18793;SDS011;29610;49.022;12.114;2023-02-25T08:58:06;8.03;;;2.30;;
18793;SDS011;29610;49.022;12.114;2023-02-25T09:00:40;6.50;;;2.03;;
18793;SDS011;29610;49.022;12.114;2023-02-25T09:03:09;5.80;;;1.73;;
18793;SDS011;29610;49.022;12.114;2023-02-25T09:05:38;12.10;;;2.30;;
18793;SDS011;29610;49.022;12.114;2023-02-25T09:08:06;9.57;;;2.90;;
18793;SDS011;29610;49.022;12.114;2023-02-25T09:10:36;9.30;;;2.23;;
18793;SDS011;29610;49.022;12.114;2023-02-25T09:13:16;12.93;;;2.17;;
18793;SDS011;29610;49.022;12.114;2023-02-25T09:15:46;16.00;;;3.10;;
18793;SDS011;29610;49.022;12.114;2023-02-25T09:18:23;13.73;;;2.50;;
18793;SDS011;29610;49.022;12.114;2023-02-25T09:20:52;6.50;;;2.50;;
18793;SDS011;29610;49.022;12.114;2023-02-25T09:23:20;7.33;;;2.50;;
18793;SDS011;29610;49.022;12.114;2023-02-25T09:25:49;5.93;;;1.70;;
18793;SDS011;29610;49.022;12.114;2023-02-25T09:28:18;5.93;;;2.10;;
18793;SDS011;29610;49.022;12.114;2023-02-25T09:30:52;8.67;;;2.10;;
18793;SDS011;29610;49.022;12.114;2023-02-25T09:33:22;9.53;;;2.77;;
18793;SDS011;29610;49.022;12.114;2023-02-25T09:35:51;10.20;;;2.37;;
18793;SDS011;29610;49.022;12.114;2023-02-25T09:38:20;12.27;;;2.47;;
18793;SDS011;29610;49.022;12.114;2023-02-25T09:40:50;6.00;;;1.70;;
18793;SDS011;29610;49.022;12.114;2023-02-25T09:43:20;13.60;;;3.70;;
18793;SDS011;29610;49.022;12.114;2023-02-25T09:45:57;9.20;;;2.17;;
18793;SDS011;29610;49.022;12.114;2023-02-25T09:48:34;7.90;;;2.23;;
18793;SDS011;29610;49.022;12.114;2023-02-25T09:51:15;6.83;;;1.80;;
18793;SDS011;29610;49.022;12.114;2023-02-25T09:53:51;8.53;;;2.23;;
18793;SDS011;29610;49.022;12.114;2023-02-25T09:56:27;11.33;;;2.23;;
18793;SDS011;29610;49.022;12.114;2023-02-25T09:58:57;11.87;;;3.43;;
18793;SDS011;29610;49.022;12.114;2023-02-25T10:01:29;7.20;;;2.20;;
18793;SDS011;29610;49.022;12.114;2023-02-25T10:04:05;10.20;;;2.63;;
18793;SDS011;29610;49.022;12.114;2023-02-25T10:06:45;7.17;;;2.53;;
18793;SDS011;29610;49.022;12.114;2023-02-25T10:09:19;6.63;;;2.00;;
18793;SDS011;29610;49.022;12.114;2023-02-25T10:11:59;6.27;;;1.90;;
18793;SDS011;29610;49.022;12.114;2023-02-25T10:15:20;10.27;;;2.53;;
18793;SDS011;29610;49.022;12.114;2023-02-25T10:18:09;12.23;;;4.00;;
18793;SDS011;29610;49.022;12.114;2023-02-25T10:20:56;12.60;;;3.30;;
18793;SDS011;29610;49.022;12.114;2023-02-25T10:23:42;8.47;;;2.87;;
18793;SDS011;29610;49.022;12.114;2023-02-25T10:26:33;13.27;;;3.77;;
18793;SDS011;29610;49.022;12.114;2023-02-25T10:29:11;15.20;;;4.27;;
18793;SDS011;29610;49.022;12.114;2023-02-25T10:31:54;12.30;;;3.50;;
18793;SDS011;29610;49.022;12.114;2023-02-25T10:34:41;9.70;;;3.00;;
18793;SDS011;29610;49.022;12.114;2023-02-25T10:37:10;10.90;;;4.33;;
18793;SDS011;29610;49.022;12.114;2023-02-25T10:39:48;10.53;;;3.53;;
18793;SDS011;29610;49.022;12.114;2023-02-25T10:42:22;8.70;;;2.20;;
18793;SDS011;29610;49.022;12.114;2023-02-25T10:44:51;6.90;;;2.27;;
18793;SDS011;29610;49.022;12.114;2023-02-25T10:47:25;8.60;;;2.83;;
18793;SDS011;29610;49.022;12.114;2023-02-25T10:50:15;12.53;;;2.20;;
18793;SDS011;29610;49.022;12.114;2023-02-25T10:52:59;11.80;;;2.63;;
18793;SDS011;29610;49.022;12.114;2023-02-25T10:55:44;7.20;;;2.70;;
18793;SDS011;29610;49.022;12.114;2023-02-25T10:58:34;5.97;;;2.17;;
18793;SDS011;29610;49.022;12.114;2023-02-25T11:01:09;9.27;;;2.43;;
18793;SDS011;29610;49.022;12.114;2023-02-25T11:03:46;7.97;;;2.47;;
18793;SDS011;29610;49.022;12.114;2023-02-25T11:06:28;7.50;;;2.57;;
18793;SDS011;29610;49.022;12.114;2023-02-25T11:08:59;9.50;;;2.30;;
18793;SDS011;29610;49.022;12.114;2023-02-25T11:11:31;7.60;;;2.37;;
18793;SDS011;29610;49.022;12.114;2023-02-25T11:14:03;8.70;;;2.40;;
18793;SDS011;29610;49.022;12.114;2023-02-25T11:16:40;7.83;;;2.23;;
18793;SDS011;29610;49.022;12.114;2023-02-25T11:19:12;8.17;;;2.07;;
18793;SDS011;29610;49.022;12.114;2023-02-25T11:21:55;7.83;;;2.63;;
18793;SDS011;29610;49.022;12.114;2023-02-25T11:24:28;10.80;;;2.80;;
18793;SDS011;29610;49.022;12.114;2023-02-25T11:27:01;9.53;;;2.90;;
18793;SDS011;29610;49.022;12.114;2023-02-25T11:29:34;9.07;;;2.90;;
18793;SDS011;29610;49.022;12.114;2023-02-25T11:32:10;9.60;;;2.23;;
18793;SDS011;29610;49.022;12.114;2023-02-25T11:34:45;9.97;;;1.90;;
18793;SDS011;29610;49.022;12.114;2023-02-25T11:37:31;8.90;;;2.23;;
18793;SDS011;29610;49.022;12.114;2023-02-25T11:40:20;11.47;;;2.63;;
18793;SDS011;29610;49.022;12.114;2023-02-25T11:42:59;10.57;;;2.47;;
18793;SDS011;29610;49.022;12.114;2023-02-25T11:45:47;9.63;;;3.10;;
18793;SDS011;29610;49.022;12.114;2023-02-25T11:48:23;11.10;;;2.80;;
18793;SDS011;29610;49.022;12.114;2023-02-25T11:50:59;6.87;;;2.27;;
18793;SDS011;29610;49.022;12.114;2023-02-25T11:56:45;12.40;;;2.70;;
18793;SDS011;29610;49.022;12.114;2023-02-25T11:59:26;8.80;;;2.30;;
18793;SDS011;29610;49.022;12.114;2023-02-25T12:08:21;10.30;;;2.60;;
18793;SDS011;29610;49.022;12.114;2023-02-25T12:14:55;15.27;;;2.60;;
18793;SDS011;29610;49.022;12.114;2023-02-25T12:18:06;8.70;;;2.13;;
18793;SDS011;29610;49.022;12.114;2023-02-25T12:33:42;10.10;;;2.27;;
18793;SDS011;29610;49.022;12.114;2023-02-25T12:36:35;7.87;;;1.97;;
18793;SDS011;29610;49.022;12.114;2023-02-25T12:39:25;10.20;;;2.87;;
18793;SDS011;29610;49.022;12.114;2023-02-25T12:42:26;7.37;;;2.33;;
18793;SDS011;29610;49.022;12.114;2023-02-25T12:45:24;13.53;;;2.87;;
18793;SDS011;29610;49.022;12.114;2023-02-25T12:48:28;11.30;;;2.00;;
18793;SDS011;29610;49.022;12.114;2023-02-25T12:51:34;15.17;;;2.97;;
18793;SDS011;29610;49.022;12.114;2023-02-25T12:54:30;11.43;;;2.60;;
18793;SDS011;29610;49.022;12.114;2023-02-25T12:57:26;7.33;;;2.43;;
18793;SDS011;29610;49.022;12.114;2023-02-25T13:03:28;6.33;;;1.80;;
18793;SDS011;29610;49.022;12.114;2023-02-25T13:06:29;7.40;;;1.97;;
18793;SDS011;29610;49.022;12.114;2023-02-25T13:09:34;7.00;;;1.87;;
18793;SDS011;29610;49.022;12.114;2023-02-25T13:12:27;8.87;;;1.80;;
18793;SDS011;29610;49.022;12.114;2023-02-25T13:15:20;10.53;;;2.27;;
18793;SDS011;29610;49.022;12.114;2023-02-25T13:18:17;5.37;;;1.50;;
18793;SDS011;29610;49.022;12.114;2023-02-25T13:21:21;6.30;;;2.40;;
18793;SDS011;29610;49.022;12.114;2023-02-25T13:24:10;7.10;;;2.23;;
18793;SDS011;29610;49.022;12.114;2023-02-25T13:26:56;13.67;;;2.90;;
18793;SDS011;29610;49.022;12.114;2023-02-25T13:29:54;11.10;;;4.00;;
18793;SDS011;29610;49.022;12.114;2023-02-25T13:32:44;6.77;;;2.20;;
18793;SDS011;29610;49.022;12.114;2023-02-25T13:35:34;6.30;;;1.90;;
18793;SDS011;29610;49.022;12.114;2023-02-25T13:38:26;7.33;;;2.37;;
18793;SDS011;29610;49.022;12.114;2023-02-25T13:41:13;9.03;;;2.50;;
18793;SDS011;29610;49.022;12.114;2023-02-25T13:44:03;14.83;;;3.03;;
18793;SDS011;29610;49.022;12.114;2023-02-25T13:53:13;7.13;;;1.90;;
18793;SDS011;29610;49.022;12.114;2023-02-25T13:56:22;5.60;;;1.70;;
18793;SDS011;29610;49.022;12.114;2023-02-25T13:59:16;6.27;;;1.67;;
18793;SDS011;29610;49.022;12.114;2023-02-25T14:02:17;4.50;;;1.10;;
18793;SDS011;29610;49.022;12.114;2023-02-25T14:05:15;4.60;;;1.10;;
18793;SDS011;29610;49.022;12.114;2023-02-25T14:08:31;4.70;;;1.10;;
18793;SDS011;29610;49.022;12.114;2023-02-25T14:11:27;4.30;;;1.17;;
18793;SDS011;29610;49.022;12.114;2023-02-25T14:17:26;5.57;;;1.57;;
18793;SDS011;29610;49.022;12.114;2023-02-25T14:20:16;5.40;;;1.73;;
18793;SDS011;29610;49.022;12.114;2023-02-25T14:23:03;8.77;;;1.40;;
18793;SDS011;29610;49.022;12.114;2023-02-25T14:26:00;7.33;;;1.60;;
18793;SDS011;29610;49.022;12.114;2023-02-25T14:28:56;7.00;;;1.80;;
18793;SDS011;29610;49.022;12.114;2023-02-25T14:31:52;6.30;;;1.73;;
18793;SDS011;29610;49.022;12.114;2023-02-25T14:34:59;6.70;;;1.30;;
18793;SDS011;29610;49.022;12.114;2023-02-25T14:37:54;6.03;;;1.23;;
18793;SDS011;29610;49.022;12.114;2023-02-25T14:40:37;7.23;;;1.87;;
18793;SDS011;29610;49.022;12.114;2023-02-25T14:43:25;5.90;;;1.97;;
18793;SDS011;29610;49.022;12.114;2023-02-25T14:45:59;5.30;;;1.90;;
18793;SDS011;29610;49.022;12.114;2023-02-25T14:48:43;5.30;;;1.70;;
18793;SDS011;29610;49.022;12.114;2023-02-25T14:51:33;6.40;;;2.10;;
18793;SDS011;29610;49.022;12.114;2023-02-25T15:07:31;4.00;;;0.90;;
18793;SDS011;29610;49.022;12.114;2023-02-25T15:10:47;3.80;;;0.87;;
18793;SDS011;29610;49.022;12.114;2023-02-25T15:23:08;4.63;;;1.20;;
18793;SDS011;29610;49.022;12.114;2023-02-25T15:25:43;4.80;;;1.10;;
18793;SDS011;29610;49.022;12.114;2023-02-25T15:28:32;4.27;;;0.90;;
18793;SDS011;29610;49.022;12.114;2023-02-25T15:31:23;4.10;;;1.07;;
18793;SDS011;29610;49.022;12.114;2023-02-25T15:37:26;4.33;;;1.23;;
18793;SDS011;29610;49.022;12.114;2023-02-25T15:40:04;4.70;;;1.10;;
18793;SDS011;29610;49.022;12.114;2023-02-25T15:49:16;4.10;;;1.20;;
18793;SDS011;29610;49.022;12.114;2023-02-25T15:51:57;5.93;;;1.43;;
18793;SDS011;29610;49.022;12.114;2023-02-25T15:54:46;4.63;;;1.47;;
18793;SDS011;29610;49.022;12.114;2023-02-25T15:57:37;4.80;;;1.23;;
18793;SDS011;29610;49.022;12.114;2023-02-25T16:03:39;4.20;;;1.03;;
18793;SDS011;29610;49.022;12.114;2023-02-25T16:06:13;4.20;;;1.23;;
18793;SDS011;29610;49.022;12.114;2023-02-25T16:08:51;4.47;;;1.23;;
18793;SDS011;29610;49.022;12.114;2023-02-25T16:11:33;5.90;;;1.10;;
18793;SDS011;29610;49.022;12.114;2023-02-25T16:14:11;3.80;;;0.90;;
18793;SDS011;29610;49.022;12.114;2023-02-25T16:16:47;4.37;;;1.00;;
18793;SDS011;29610;49.022;12.114;2023-02-25T16:19:23;4.17;;;1.10;;
18793;SDS011;29610;49.022;12.114;2023-02-25T16:21:57;4.07;;;1.37;;
18793;SDS011;29610;49.022;12.114;2023-02-25T16:24:30;6.00;;;1.43;;
18793;SDS011;29610;49.022;12.114;2023-02-25T16:27:00;4.07;;;1.30;;
18793;SDS011;29610;49.022;12.114;2023-02-25T16:29:42;6.87;;;1.67;;
18793;SDS011;29610;49.022;12.114;2023-02-25T16:32:25;5.20;;;1.57;;
18793;SDS011;29610;49.022;12.114;2023-02-25T16:35:08;7.57;;;1.93;;
18793;SDS011;29610;49.022;12.114;2023-02-25T16:37:48;4.60;;;1.53;;
18793;SDS011;29610;49.022;12.114;2023-02-25T16:40:29;5.23;;;1.50;;
18793;SDS011;29610;49.022;12.114;2023-02-25T16:43:03;4.53;;;1.63;;
18793;SDS011;29610;49.022;12.114;2023-02-25T16:45:41;5.07;;;1.50;;
18793;SDS011;29610;49.022;12.114;2023-02-25T16:48:21;6.77;;;2.67;;
18793;SDS011;29610;49.022;12.114;2023-02-25T16:50:57;6.70;;;1.70;;
18793;SDS011;29610;49.022;12.114;2023-02-25T16:53:39;5.23;;;1.67;;